Time,TemperatureF,DewpointF,PressureIn,WindDirection,WindDirectionDegrees,WindSpeedMPH,WindSpeedGustMPH,Humidity,HourlyPrecipIn,Conditions,Clouds,dailyrainin,SoftwareType,DateUTC
2013-07-11 00:01:00,67.0,49.0,-100.00,ESE,103,11.0,19.0,53,0.00,,,-99.99,,2013-07-11 06:01:00,
2013-07-11 00:43:00,68.0,47.0,-100.00,SSE,155,13.0,17.0,47,0.00,,,-99.99,,2013-07-11 06:43:00,
2013-07-11 01:12:00,68.0,46.0,-100.00,SSE,154,14.0,18.0,46,0.00,,,-99.99,,2013-07-11 07:12:00,
2013-07-11 01:32:00,67.0,45.0,-100.00,SE,131,12.0,16.0,46,0.00,,,-99.99,,2013-07-11 07:32:00,
2013-07-11 01:45:00,67.0,46.0,-100.00,ESE,121,14.0,19.0,48,0.00,,,-99.99,,2013-07-11 07:45:00,
2013-07-11 02:02:00,68.0,44.0,-100.00,SE,134,13.0,16.0,42,0.00,,,-99.99,,2013-07-11 08:02:00,
2013-07-11 02:11:00,68.0,44.0,-100.00,SE,131,13.0,15.0,43,0.00,,,-99.99,,2013-07-11 08:11:00,
2013-07-11 02:43:00,69.0,43.0,-100.00,SE,141,15.0,19.0,38,0.00,,,-99.99,,2013-07-11 08:43:00,
2013-07-11 03:43:00,68.0,39.0,-100.00,ESE,117,14.0,16.0,34,0.00,,,-99.99,,2013-07-11 09:43:00,
2013-07-11 04:12:00,67.0,40.0,-100.00,SE,137,9.0,12.0,36,0.00,,,-99.99,,2013-07-11 10:12:00,
2013-07-11 05:12:00,68.0,37.0,-100.00,SSE,164,7.0,10.0,32,0.00,,,-99.99,,2013-07-11 11:12:00,
2013-07-11 05:43:00,68.0,37.0,-100.00,SSE,164,7.0,13.0,32,0.00,,,-99.99,,2013-07-11 11:43:00,
2013-07-11 09:12:00,76.0,38.0,-100.00,ESE,114,8.0,11.0,25,0.00,,,-99.99,,2013-07-11 15:12:00,
2013-07-11 09:45:00,80.0,35.0,-100.00,ESE,104,7.0,12.0,20,0.00,,,-99.99,,2013-07-11 15:45:00,
2013-07-11 10:04:00,80.0,41.0,-100.00,East,93,8.0,12.0,24,0.00,,,-99.99,,2013-07-11 16:04:00,
2013-07-11 11:02:00,83.0,29.0,-100.00,SSW,202,11.0,18.0,14,0.00,,,-99.99,,2013-07-11 17:02:00,
2013-07-11 11:13:00,83.0,30.0,-100.00,SSW,192,10.0,16.0,15,0.00,,,-99.99,,2013-07-11 17:13:00,
2013-07-11 11:45:00,84.0,26.0,-100.00,SW,216,11.0,19.0,12,0.00,,,-99.99,,2013-07-11 17:45:00,
2013-07-11 12:14:00,84.0,26.0,-100.00,WNW,284,12.0,18.0,12,0.00,,,-99.99,,2013-07-11 18:14:00,
2013-07-11 12:45:00,83.0,26.0,-100.00,WSW,250,14.0,19.0,13,0.00,,,-99.99,,2013-07-11 18:45:00,
2013-07-11 13:44:00,86.0,29.0,-100.00,West,274,11.0,21.0,13,0.00,,,-99.99,,2013-07-11 19:44:00,
2013-07-11 15:13:00,85.0,28.0,-100.00,WSW,239,12.0,22.0,12,0.00,,,-99.99,,2013-07-11 21:13:00,
2013-07-11 15:44:00,87.0,28.0,-100.00,WSW,250,14.0,28.0,12,0.00,,,-99.99,,2013-07-11 21:44:00,
2013-07-11 16:45:00,86.0,29.0,-100.00,WSW,243,16.0,32.0,13,0.00,,,-99.99,,2013-07-11 22:45:00,
2013-07-11 17:46:00,85.0,28.0,-100.00,WSW,253,18.0,26.0,13,0.00,,,-99.99,,2013-07-11 23:46:00,
2013-07-11 18:03:00,85.0,29.0,-100.00,WSW,246,17.0,22.0,13,0.00,,,-99.99,,2013-07-12 00:03:00,
2013-07-11 18:13:00,84.0,29.0,-100.00,SW,233,17.0,22.0,14,0.00,,,-99.99,,2013-07-12 00:13:00,
2013-07-11 18:43:00,84.0,31.0,-100.00,SW,236,14.0,19.0,14,0.00,,,-99.99,,2013-07-12 00:43:00,
2013-07-11 19:12:00,84.0,30.0,-100.00,WSW,237,16.0,22.0,14,0.00,,,-99.99,,2013-07-12 01:12:00,
2013-07-11 19:25:00,84.0,32.0,-100.00,WSW,240,17.0,22.0,15,0.00,,,-99.99,,2013-07-12 01:25:00,
2013-07-11 19:44:00,82.0,33.0,-100.00,WSW,240,14.0,17.0,17,0.00,,,-99.99,,2013-07-12 01:44:00,
2013-07-11 20:43:00,77.0,34.0,-100.00,SSW,202,8.0,10.0,21,0.00,,,-99.99,,2013-07-12 02:43:00,
2013-07-11 21:35:00,77.0,34.0,-100.00,SSW,192,9.0,11.0,21,0.00,,,-99.99,,2013-07-12 03:35:00,
2013-07-11 21:43:00,77.0,35.0,-100.00,South,188,9.0,11.0,21,0.00,,,-99.99,,2013-07-12 03:43:00,
2013-07-11 22:43:00,76.0,35.0,-100.00,SSW,196,14.0,19.0,23,0.00,,,-99.99,,2013-07-12 04:43:00,
2013-07-11 22:53:00,76.0,35.0,-100.00,SSW,196,15.0,19.0,23,0.00,,,-99.99,,2013-07-12 04:53:00,
2013-07-11 23:02:00,76.0,35.0,-100.00,SSW,195,17.0,21.0,22,0.00,,,-99.99,,2013-07-12 05:02:00,
2013-07-11 23:43:00,75.0,38.0,-100.00,SW,216,29.0,39.0,27,0.00,,,-99.99,,2013-07-12 05:43:00,